Time;durP1;ratioP1;P1;durP2;ratioP2;P2;SDS_P1;SDS_P2;PMS_P1;PMS_P2;Temp;Humidity;BMP_temperature;BMP_pressure;BME280_temperature;BME280_humidity;BME280_pressure;Samples;Min_cycle;Max_cycle;Signal;HPM_P1;HPM_P2
2022/07/07 00:01:11;;;;;;;3.03;1.42;;;18.60;58.00;;;;;;5012714;28;20026;-82
2022/07/07 00:03:37;;;;;;;4.88;1.60;;;18.50;57.60;;;;;;4988949;28;20026;-83
2022/07/07 00:06:03;;;;;;;1.48;1.27;;;18.50;57.70;;;;;;4997336;28;20094;-83
2022/07/07 00:08:28;;;;;;;3.53;1.27;;;18.50;57.90;;;;;;4999606;28;20031;-84
2022/07/07 00:10:55;;;;;;;3.00;1.23;;;18.40;58.10;;;;;;4985104;28;20033;-83
2022/07/07 00:13:21;;;;;;;3.20;1.50;;;18.40;58.00;;;;;;5009486;28;20023;-83
2022/07/07 00:15:46;;;;;;;2.75;1.58;;;18.40;58.00;;;;;;5002597;28;20033;-83
2022/07/07 00:18:13;;;;;;;3.35;1.50;;;18.40;57.90;;;;;;4982763;28;20061;-82
2022/07/07 00:20:38;;;;;;;6.60;1.70;;;18.40;57.90;;;;;;5012283;28;20049;-82
2022/07/07 00:23:04;;;;;;;3.22;1.30;;;18.40;57.90;;;;;;5001196;28;20215;-83
2022/07/07 00:25:30;;;;;;;2.42;1.63;;;18.40;58.00;;;;;;5001715;28;20030;-83
2022/07/07 00:27:55;;;;;;;2.85;1.38;;;18.40;58.10;;;;;;5002157;28;20034;-83
2022/07/07 00:30:21;;;;;;;1.58;1.25;;;18.40;58.30;;;;;;5001642;28;20022;-83
2022/07/07 00:32:47;;;;;;;4.70;1.42;;;18.40;58.30;;;;;;4984545;28;20030;-83
2022/07/07 00:35:13;;;;;;;4.03;1.45;;;18.30;57.50;;;;;;5003052;28;20037;-83
2022/07/07 00:37:39;;;;;;;2.97;1.65;;;18.40;57.90;;;;;;5002164;28;20022;-83
2022/07/07 00:40:07;;;;;;;4.03;1.63;;;18.30;57.80;;;;;;4984819;28;20503;-83
2022/07/07 00:42:33;;;;;;;3.28;1.70;;;18.30;58.10;;;;;;5002418;28;20026;-83
2022/07/07 00:44:58;;;;;;;1.77;1.42;;;18.20;58.30;;;;;;5002685;28;20106;-83
2022/07/07 00:47:25;;;;;;;2.25;1.35;;;18.20;57.90;;;;;;5003289;28;20480;-82
2022/07/07 00:49:52;;;;;;;2.22;1.65;;;18.10;58.40;;;;;;4985864;28;20026;-83
2022/07/07 00:52:18;;;;;;;2.20;1.40;;;18.10;58.50;;;;;;5004086;28;20085;-83
2022/07/07 00:54:56;;;;;;;1.80;1.42;;;18.10;58.70;;;;;;5003335;28;20447;-82
2022/07/07 00:57:24;;;;;;;1.98;1.30;;;18.00;58.70;;;;;;4999049;28;20026;-83
2022/07/07 00:59:49;;;;;;;6.78;2.08;;;18.00;58.90;;;;;;5002301;28;20026;-83
2022/07/07 01:02:16;;;;;;;3.08;1.40;;;18.00;59.10;;;;;;5004866;28;20313;-83
2022/07/07 01:04:42;;;;;;;1.55;1.42;;;18.00;59.00;;;;;;5004926;28;20033;-83
2022/07/07 01:07:08;;;;;;;2.42;1.75;;;18.00;58.80;;;;;;5002603;28;20022;-83
2022/07/07 01:09:34;;;;;;;2.90;1.65;;;18.00;58.90;;;;;;5008600;28;20018;-83
2022/07/07 01:12:00;;;;;;;1.92;1.52;;;17.90;58.60;;;;;;5002558;28;20382;-83
2022/07/07 01:14:26;;;;;;;1.77;1.40;;;17.90;58.90;;;;;;5003179;28;20053;-83
2022/07/07 01:16:52;;;;;;;2.55;1.38;;;17.90;59.20;;;;;;4998184;28;20367;-83
2022/07/07 01:19:20;;;;;;;2.88;1.58;;;17.90;59.00;;;;;;4999140;28;20053;-83
2022/07/07 01:22:13;;;;;;;2.38;1.20;;;17.90;59.00;;;;;;4982565;28;20038;-83
2022/07/07 01:24:39;;;;;;;1.63;1.52;;;17.90;59.30;;;;;;4976847;28;20038;-83
2022/07/07 01:27:14;;;;;;;8.60;2.40;;;17.80;58.80;;;;;;5000239;28;20053;-83
2022/07/07 01:29:46;;;;;;;2.40;1.60;;;17.80;59.10;;;;;;4998742;28;20108;-83
2022/07/07 01:32:12;;;;;;;2.63;1.98;;;17.70;59.20;;;;;;4998010;28;20410;-83
2022/07/07 01:34:40;;;;;;;5.18;1.60;;;17.70;59.40;;;;;;4980836;28;20038;-84
2022/07/07 01:37:07;;;;;;;2.67;1.92;;;17.60;59.60;;;;;;5001132;28;20029;-83
2022/07/07 01:39:33;;;;;;;2.38;2.17;;;17.60;59.90;;;;;;4981162;28;20023;-83
2022/07/07 01:42:00;;;;;;;3.03;1.70;;;17.60;60.00;;;;;;4999220;28;20038;-83
2022/07/07 01:44:26;;;;;;;3.33;1.85;;;17.60;60.20;;;;;;5006390;28;20026;-83
2022/07/07 01:46:51;;;;;;;3.85;1.50;;;17.60;59.90;;;;;;4984556;28;20027;-83
2022/07/07 01:49:17;;;;;;;5.72;1.70;;;17.60;59.80;;;;;;4997869;28;20077;-83
2022/07/07 01:51:44;;;;;;;3.40;1.45;;;17.50;60.00;;;;;;5004824;28;20027;-83
2022/07/07 01:54:10;;;;;;;2.90;1.63;;;17.50;60.50;;;;;;4990815;28;20042;-83
2022/07/07 01:56:36;;;;;;;4.68;3.55;;;17.40;60.20;;;;;;5005245;28;20467;-83
2022/07/07 01:59:02;;;;;;;4.18;1.73;;;17.30;60.50;;;;;;4991683;28;20050;-82
2022/07/07 02:01:28;;;;;;;1.98;1.77;;;17.20;60.90;;;;;;5011452;28;20123;-83
2022/07/07 02:03:54;;;;;;;2.67;1.45;;;17.20;61.40;;;;;;5008033;28;20081;-83
2022/07/07 02:06:20;;;;;;;3.58;1.80;;;17.10;61.40;;;;;;5006163;28;20034;-83
2022/07/07 02:08:45;;;;;;;2.38;1.55;;;17.10;61.60;;;;;;5002677;28;20037;-83
2022/07/07 02:11:17;;;;;;;2.38;1.80;;;17.00;61.60;;;;;;4985193;28;20029;-83
2022/07/07 02:13:45;;;;;;;2.08;1.40;;;17.00;61.60;;;;;;5002462;28;20049;-82
2022/07/07 02:16:12;;;;;;;3.67;1.50;;;17.00;61.70;;;;;;5002172;28;20058;-83
2022/07/07 02:18:40;;;;;;;3.33;1.70;;;17.00;62.00;;;;;;5004059;28;20030;-83
2022/07/07 02:21:10;;;;;;;4.80;1.92;;;17.00;62.10;;;;;;5025630;28;20056;-82
2022/07/07 02:23:37;;;;;;;3.65;1.95;;;17.00;62.10;;;;;;5003891;28;20037;-82
2022/07/07 02:26:03;;;;;;;5.07;1.80;;;17.00;62.10;;;;;;4992380;28;20026;-83
2022/07/07 02:28:29;;;;;;;4.07;1.80;;;16.90;62.20;;;;;;5000009;28;20034;-83
2022/07/07 02:30:57;;;;;;;6.60;1.70;;;16.90;62.50;;;;;;5000058;28;20034;-84
2022/07/07 02:33:23;;;;;;;4.07;1.50;;;16.90;62.60;;;;;;4982515;28;20110;-83
2022/07/07 02:35:50;;;;;;;3.33;1.33;;;16.90;62.70;;;;;;4999211;28;20022;-83
2022/07/07 02:38:16;;;;;;;2.03;1.48;;;16.90;62.70;;;;;;4981775;28;20037;-83
2022/07/07 02:40:42;;;;;;;2.55;1.90;;;16.90;62.60;;;;;;4982392;28;20092;-84
2022/07/07 02:43:12;;;;;;;4.30;1.52;;;16.90;62.60;;;;;;4999272;28;20117;-83
2022/07/07 02:45:49;;;;;;;3.05;1.60;;;17.00;62.40;;;;;;4999620;28;20029;-83
2022/07/07 02:48:17;;;;;;;2.65;1.67;;;17.00;62.20;;;;;;5000947;28;20072;-81
2022/07/07 02:50:43;;;;;;;2.72;1.42;;;17.00;62.20;;;;;;5002519;28;20054;-82
2022/07/07 02:53:10;;;;;;;4.85;1.95;;;17.00;62.20;;;;;;4999849;28;20048;-84
2022/07/07 02:55:36;;;;;;;3.63;1.70;;;16.90;62.10;;;;;;5001507;28;20428;-82
2022/07/07 02:58:04;;;;;;;6.18;1.70;;;16.90;62.30;;;;;;5000007;28;20344;-84
2022/07/07 03:00:33;;;;;;;4.68;1.80;;;16.90;62.20;;;;;;5012355;28;20124;-85
2022/07/07 03:03:00;;;;;;;3.55;1.48;;;16.80;62.60;;;;;;5019360;28;20030;-83
2022/07/07 03:05:26;;;;;;;4.57;1.50;;;16.80;62.70;;;;;;5002638;28;20509;-84
2022/07/07 03:07:52;;;;;;;3.70;1.67;;;16.80;63.00;;;;;;5000006;28;20041;-83
2022/07/07 03:10:18;;;;;;;3.53;1.67;;;16.80;63.20;;;;;;4982470;28;20026;-82
2022/07/07 03:12:43;;;;;;;1.92;1.48;;;16.80;62.70;;;;;;4999914;28;20023;-82
2022/07/07 03:15:09;;;;;;;6.90;2.25;;;16.80;62.80;;;;;;4999751;28;20018;-83
2022/07/07 03:17:36;;;;;;;2.08;1.60;;;16.80;63.00;;;;;;4983458;28;20046;-83
2022/07/07 03:20:05;;;;;;;4.40;1.88;;;16.80;63.30;;;;;;5000526;28;20061;-83
2022/07/07 03:22:31;;;;;;;3.80;2.30;;;16.80;63.40;;;;;;4999514;28;20105;-82
2022/07/07 03:24:56;;;;;;;2.15;1.92;;;16.80;63.80;;;;;;4998605;28;20490;-84
2022/07/07 03:27:22;;;;;;;2.72;1.50;;;16.80;63.80;;;;;;5001747;28;20157;-85
2022/07/07 03:29:48;;;;;;;2.13;1.45;;;16.80;64.50;;;;;;5003067;28;20471;-84
2022/07/07 03:32:16;;;;;;;4.30;1.35;;;16.80;64.60;;;;;;4985705;28;20022;-84
2022/07/07 03:34:42;;;;;;;2.83;1.40;;;16.80;64.40;;;;;;5002779;28;20031;-84
2022/07/07 03:37:08;;;;;;;1.48;1.30;;;16.90;64.00;;;;;;5002192;28;20045;-84
2022/07/07 03:39:33;;;;;;;2.15;1.67;;;16.80;63.70;;;;;;5002102;28;20031;-85
2022/07/07 03:41:59;;;;;;;2.55;1.90;;;16.80;63.90;;;;;;5002216;28;20031;-84
2022/07/07 03:44:25;;;;;;;1.30;1.20;;;16.80;64.10;;;;;;4999925;28;20503;-84
2022/07/07 03:46:51;;;;;;;1.70;1.50;;;16.80;64.30;;;;;;4999451;28;20036;-83
2022/07/07 03:49:16;;;;;;;1.95;1.52;;;16.80;64.20;;;;;;5000152;28;20018;-83
2022/07/07 03:51:42;;;;;;;3.35;1.77;;;16.80;64.20;;;;;;5000942;28;20027;-83
2022/07/07 03:54:08;;;;;;;1.27;1.15;;;16.90;64.40;;;;;;4985594;28;20019;-83
2022/07/07 03:56:33;;;;;;;1.38;1.27;;;16.90;64.30;;;;;;4992982;28;20042;-83
2022/07/07 03:58:59;;;;;;;3.47;2.15;;;16.90;64.40;;;;;;4986440;28;20026;-84
2022/07/07 04:01:25;;;;;;;2.65;1.60;;;17.00;64.40;;;;;;5004047;28;20048;-84
2022/07/07 04:03:50;;;;;;;2.80;1.38;;;17.00;64.40;;;;;;5004205;28;20418;-83
2022/07/07 04:06:16;;;;;;;1.58;1.33;;;17.00;64.20;;;;;;4988306;28;20391;-83
2022/07/07 04:08:42;;;;;;;5.30;1.55;;;16.90;65.10;;;;;;5003771;28;20030;-84
2022/07/07 04:11:07;;;;;;;1.85;1.75;;;16.90;64.20;;;;;;5004601;28;20022;-82
2022/07/07 04:13:33;;;;;;;3.65;1.63;;;16.90;64.30;;;;;;5003506;28;20101;-83
2022/07/07 04:15:59;;;;;;;5.10;1.80;;;16.90;64.40;;;;;;4986240;28;20035;-83
2022/07/07 04:18:24;;;;;;;4.40;1.88;;;16.90;64.00;;;;;;5002837;28;20041;-84
2022/07/07 04:20:51;;;;;;;2.70;1.60;;;16.90;63.60;;;;;;4985941;28;20042;-82
2022/07/07 04:23:16;;;;;;;3.58;1.77;;;17.00;63.60;;;;;;5002844;28;20030;-82
2022/07/07 04:25:42;;;;;;;2.75;1.10;;;17.00;63.50;;;;;;5003359;28;20029;-81
2022/07/07 04:28:08;;;;;;;3.45;1.50;;;17.10;62.80;;;;;;5011382;28;20085;-82
2022/07/07 04:30:33;;;;;;;6.93;2.22;;;17.10;63.50;;;;;;5010739;28;20026;-82
2022/07/07 04:32:59;;;;;;;2.53;1.65;;;17.10;62.50;;;;;;5018212;28;20069;-82
2022/07/07 04:35:25;;;;;;;2.45;1.40;;;17.00;62.40;;;;;;5020969;28;20025;-83
2022/07/07 04:37:51;;;;;;;3.65;1.40;;;17.00;62.60;;;;;;5037784;28;20014;-82
2022/07/07 04:40:17;;;;;;;1.98;1.65;;;17.00;63.00;;;;;;5015024;28;20060;-84
2022/07/07 04:42:42;;;;;;;4.13;1.65;;;17.10;62.40;;;;;;5021377;28;20030;-85
2022/07/07 04:45:09;;;;;;;3.40;1.25;;;17.10;62.50;;;;;;5017026;28;20025;-83
2022/07/07 04:47:44;;;;;;;2.60;1.50;;;17.10;62.90;;;;;;5023461;28;20337;-83
2022/07/07 04:50:11;;;;;;;4.18;1.55;;;17.10;62.60;;;;;;4999068;28;20033;-85
2022/07/07 04:52:38;;;;;;;5.82;1.70;;;17.10;62.80;;;;;;5026719;28;20026;-85
2022/07/07 04:55:04;;;;;;;5.90;1.70;;;17.10;62.50;;;;;;5008190;28;20105;-85
2022/07/07 04:57:55;;;;;;;2.00;1.25;;;17.20;62.20;;;;;;5000456;28;20478;-84
2022/07/07 05:00:22;;;;;;;5.05;1.65;;;17.30;62.40;;;;;;4998890;28;20036;-84
2022/07/07 05:02:48;;;;;;;2.20;1.80;;;17.30;61.20;;;;;;4998037;28;20022;-83
2022/07/07 05:05:14;;;;;;;4.63;1.50;;;17.40;61.10;;;;;;5009056;28;20097;-83
2022/07/07 05:07:40;;;;;;;2.40;1.40;;;17.40;60.80;;;;;;5004457;28;20022;-84
2022/07/07 05:10:06;;;;;;;2.50;1.50;;;17.40;60.80;;;;;;5001143;28;20082;-85
2022/07/07 05:12:32;;;;;;;1.55;1.40;;;17.40;62.10;;;;;;5001140;28;20452;-84
2022/07/07 05:14:58;;;;;;;2.30;1.85;;;17.40;61.30;;;;;;4999920;28;20030;-84
2022/07/07 05:17:24;;;;;;;3.85;1.10;;;17.50;60.90;;;;;;4982931;28;20077;-85
2022/07/07 05:19:49;;;;;;;5.50;1.40;;;17.50;61.30;;;;;;5000981;28;20081;-85
2022/07/07 05:22:15;;;;;;;4.57;1.63;;;17.50;60.70;;;;;;5000104;28;20038;-85
2022/07/07 05:24:40;;;;;;;2.25;1.55;;;17.60;60.70;;;;;;4981902;28;20034;-84
2022/07/07 05:27:07;;;;;;;4.35;1.30;;;17.50;60.50;;;;;;5003048;28;20030;-84
2022/07/07 05:29:33;;;;;;;2.17;1.42;;;17.50;60.90;;;;;;4984227;28;20033;-84
2022/07/07 05:31:58;;;;;;;2.58;1.30;;;17.60;61.30;;;;;;4967418;28;20033;-84
2022/07/07 05:34:27;;;;;;;5.03;1.58;;;17.60;61.10;;;;;;5000061;28;20026;-84
2022/07/07 05:36:53;;;;;;;3.97;1.63;;;17.60;60.60;;;;;;4981513;28;20036;-84
2022/07/07 05:39:19;;;;;;;4.70;1.63;;;17.50;60.10;;;;;;5000342;28;20117;-84
2022/07/07 05:41:45;;;;;;;6.80;1.30;;;17.50;60.10;;;;;;5000156;28;20030;-84
2022/07/07 05:44:11;;;;;;;3.60;1.48;;;17.50;59.90;;;;;;4999967;28;20099;-83
2022/07/07 05:46:36;;;;;;;5.65;2.00;;;17.50;59.80;;;;;;4999205;28;20034;-82
2022/07/07 05:49:08;;;;;;;3.55;1.73;;;17.40;60.00;;;;;;5001149;28;20451;-83
2022/07/07 05:51:34;;;;;;;2.08;1.15;;;17.40;59.90;;;;;;4984133;28;20230;-84
2022/07/07 05:53:59;;;;;;;1.40;1.30;;;17.40;60.30;;;;;;4983454;28;20147;-84
2022/07/07 05:56:27;;;;;;;3.03;1.30;;;17.40;60.20;;;;;;4999192;28;20038;-83
2022/07/07 05:58:53;;;;;;;4.05;1.40;;;17.50;60.30;;;;;;4998662;28;20027;-84
2022/07/07 06:01:19;;;;;;;2.28;1.52;;;17.60;60.30;;;;;;4986320;28;20037;-84
2022/07/07 06:03:48;;;;;;;4.05;1.48;;;17.70;59.80;;;;;;5002768;28;20471;-84
2022/07/07 06:06:13;;;;;;;4.90;1.20;;;17.70;59.40;;;;;;5001302;28;20086;-84
2022/07/07 06:08:39;;;;;;;3.97;1.67;;;17.80;59.60;;;;;;5001315;28;20057;-86
2022/07/07 06:11:05;;;;;;;4.38;1.85;;;17.90;59.20;;;;;;4999710;28;20034;-85
2022/07/07 06:13:31;;;;;;;4.97;1.70;;;18.00;58.70;;;;;;4980869;28;20019;-85
2022/07/07 06:16:13;;;;;;;4.47;1.30;;;18.10;58.40;;;;;;4998792;28;20384;-87
2022/07/07 06:18:44;;;;;;;5.57;1.77;;;18.10;58.80;;;;;;4980721;28;20121;-86
2022/07/07 06:21:10;;;;;;;5.43;1.90;;;18.10;59.10;;;;;;4980946;28;20159;-85
2022/07/07 06:23:35;;;;;;;8.85;1.70;;;18.10;58.70;;;;;;4997899;28;20105;-86
2022/07/07 06:26:19;;;;;;;5.10;1.75;;;18.10;59.40;;;;;;4983222;28;20026;-85
2022/07/07 06:28:45;;;;;;;2.78;0.98;;;18.10;59.30;;;;;;4991516;28;20053;-84
2022/07/07 06:31:10;;;;;;;4.35;1.77;;;18.10;59.50;;;;;;5020587;28;20029;-82
2022/07/07 06:33:36;;;;;;;2.00;1.30;;;18.10;59.90;;;;;;5008140;28;20018;-85
2022/07/07 06:36:02;;;;;;;1.65;1.30;;;18.10;59.70;;;;;;5002344;28;20041;-86
2022/07/07 06:38:28;;;;;;;2.15;1.30;;;18.10;60.20;;;;;;5006745;28;20025;-86
2022/07/07 06:40:58;;;;;;;1.80;0.90;;;18.00;59.90;;;;;;5013534;28;20050;-87
2022/07/07 06:43:33;;;;;;;1.67;1.25;;;18.00;60.60;;;;;;5013730;28;20030;-85
2022/07/07 06:45:58;;;;;;;3.20;1.13;;;18.00;60.70;;;;;;5012668;28;20038;-87
2022/07/07 06:48:33;;;;;;;3.85;1.27;;;18.00;60.70;;;;;;4989044;28;20026;-87
2022/07/07 06:51:15;;;;;;;5.20;1.80;;;18.10;60.60;;;;;;4985478;28;20022;-85
2022/07/07 06:53:42;;;;;;;7.55;1.25;;;18.10;61.10;;;;;;4988183;28;20019;-85
2022/07/07 06:56:08;;;;;;;3.20;1.13;;;18.20;60.60;;;;;;5003079;28;20034;-85
2022/07/07 07:16:44;;;;;;;2.03;1.30;;;19.30;58.00;;;;;;4977605;28;20504;-84
2022/07/07 07:19:18;;;;;;;4.68;1.23;;;19.40;58.10;;;;;;4963288;28;20029;-84
2022/07/07 07:22:11;;;;;;;2.80;1.30;;;19.50;57.30;;;;;;4970234;28;20031;-84
2022/07/07 07:24:37;;;;;;;1.70;1.05;;;19.50;57.70;;;;;;4965768;28;20087;-82
2022/07/07 07:27:03;;;;;;;3.40;1.02;;;19.30;57.90;;;;;;4951279;28;20810;-84
2022/07/07 07:29:36;;;;;;;4.28;1.60;;;19.30;58.10;;;;;;4961571;28;20050;-84
2022/07/07 07:32:02;;;;;;;2.38;1.00;;;19.20;58.00;;;;;;4963690;28;20463;-83
2022/07/07 07:34:29;;;;;;;2.63;1.27;;;19.10;58.10;;;;;;4979315;28;20018;-82
2022/07/07 07:37:02;;;;;;;4.30;1.58;;;19.00;58.70;;;;;;4964189;28;20044;-84
2022/07/07 07:39:30;;;;;;;5.10;1.58;;;18.90;58.70;;;;;;4960759;28;20326;-84
2022/07/07 07:41:55;;;;;;;3.72;1.35;;;19.00;58.40;;;;;;4961464;28;20075;-83
2022/07/07 07:47:05;;;;;;;3.63;1.63;;;19.00;58.90;;;;;;4978748;28;20566;-84
2022/07/07 07:49:37;;;;;;;1.45;0.98;;;19.10;58.40;;;;;;4961972;28;20038;-82
2022/07/07 07:52:12;;;;;;;2.65;1.20;;;19.20;58.80;;;;;;4978377;28;20027;-81
2022/07/07 07:54:38;;;;;;;4.47;1.75;;;19.40;58.20;;;;;;4969240;28;20031;-82
2022/07/07 07:57:04;;;;;;;4.20;1.60;;;19.60;57.80;;;;;;4971349;28;20052;-82
2022/07/07 07:59:29;;;;;;;3.47;1.63;;;19.70;56.80;;;;;;4958513;28;20027;-82
2022/07/07 08:01:55;;;;;;;1.15;0.85;;;19.90;56.50;;;;;;4960326;28;20037;-82
2022/07/07 08:04:21;;;;;;;3.60;1.30;;;20.00;56.40;;;;;;4976528;28;20035;-83
2022/07/07 08:06:46;;;;;;;4.35;1.20;;;20.30;56.50;;;;;;4981024;28;20031;-82
2022/07/07 08:09:12;;;;;;;2.45;1.10;;;20.50;55.30;;;;;;4981698;28;20015;-81
2022/07/07 08:11:38;;;;;;;2.35;1.30;;;20.70;54.90;;;;;;4976461;28;20045;-81
2022/07/07 08:14:03;;;;;;;2.85;1.10;;;20.90;54.70;;;;;;4958818;28;20044;-83
2022/07/07 08:16:29;;;;;;;2.03;1.10;;;21.00;54.40;;;;;;4976922;28;20455;-82
2022/07/07 08:18:55;;;;;;;4.25;1.08;;;21.10;53.40;;;;;;4958478;28;20407;-82
2022/07/07 08:21:21;;;;;;;3.00;1.13;;;20.90;54.10;;;;;;4960523;28;20027;-84
2022/07/07 08:23:47;;;;;;;4.57;1.10;;;20.80;53.30;;;;;;4977243;28;20609;-82
2022/07/07 08:26:12;;;;;;;1.55;0.90;;;20.70;54.30;;;;;;4974154;28;20030;-82
2022/07/07 08:28:39;;;;;;;1.05;0.80;;;20.70;54.70;;;;;;4995067;28;20368;-82
2022/07/07 08:31:06;;;;;;;3.85;1.25;;;20.90;54.10;;;;;;4978802;28;20057;-81
2022/07/07 08:33:32;;;;;;;6.82;1.17;;;21.10;53.70;;;;;;4958486;28;20027;-82
2022/07/07 08:35:58;;;;;;;2.17;0.93;;;21.20;53.20;;;;;;4959155;28;20031;-84
2022/07/07 08:38:24;;;;;;;2.97;1.20;;;21.30;53.30;;;;;;4976358;28;20110;-82
2022/07/07 08:40:54;;;;;;;2.17;0.98;;;21.40;53.40;;;;;;4974947;28;20062;-80
2022/07/07 08:43:20;;;;;;;4.70;1.30;;;21.70;53.50;;;;;;4975439;28;20031;-81
2022/07/07 08:46:05;;;;;;;2.08;1.10;;;22.00;52.50;;;;;;4982894;28;20066;-83
2022/07/07 08:49:07;;;;;;;3.40;0.95;;;22.30;51.80;;;;;;4981398;28;20022;-85
2022/07/07 08:51:33;;;;;;;3.65;1.38;;;22.50;50.70;;;;;;4965860;28;20050;-81
2022/07/07 08:54:01;;;;;;;2.25;1.02;;;22.60;50.60;;;;;;4991259;28;20275;-82
2022/07/07 08:56:27;;;;;;;2.55;1.17;;;22.80;51.20;;;;;;4964967;28;20429;-83
2022/07/07 08:58:56;;;;;;;1.38;0.82;;;23.10;50.00;;;;;;4962191;28;20024;-83
2022/07/07 09:01:21;;;;;;;3.58;1.02;;;23.30;49.70;;;;;;4974156;28;20023;-81
2022/07/07 09:03:47;;;;;;;4.07;1.17;;;23.40;48.50;;;;;;4963098;28;20080;-82
2022/07/07 09:06:14;;;;;;;1.83;0.82;;;23.30;48.90;;;;;;4983035;28;20035;-82
2022/07/07 09:08:40;;;;;;;1.95;0.93;;;23.30;48.60;;;;;;4969805;28;20023;-83
2022/07/07 09:11:10;;;;;;;3.95;1.20;;;23.00;48.90;;;;;;4972283;28;20049;-84
2022/07/07 09:13:36;;;;;;;8.75;2.10;;;22.70;49.60;;;;;;4990603;28;20019;-82
2022/07/07 09:16:11;;;;;;;2.10;1.20;;;22.60;49.60;;;;;;4989742;28;20057;-84
2022/07/07 09:18:41;;;;;;;4.72;1.23;;;22.50;50.00;;;;;;4990159;28;20042;-83
2022/07/07 09:21:28;;;;;;;2.95;1.00;;;22.40;50.20;;;;;;4992281;28;20025;-83
2022/07/07 09:23:56;;;;;;;1.85;1.27;;;22.30;50.60;;;;;;4989279;28;20027;-82
2022/07/07 09:26:35;;;;;;;6.53;2.13;;;22.10;50.90;;;;;;4981097;28;20074;-82
2022/07/07 09:29:00;;;;;;;6.13;1.80;;;21.80;51.20;;;;;;4970631;29;20063;-83
2022/07/07 09:31:58;;;;;;;2.92;1.00;;;21.40;52.50;;;;;;4963774;28;20026;-81
2022/07/07 09:34:30;;;;;;;2.92;1.50;;;20.80;54.20;;;;;;4971129;28;20086;-83
2022/07/07 09:39:47;;;;;;;3.63;1.65;;;20.10;58.90;;;;;;4985440;28;20046;-85
2022/07/07 09:42:19;;;;;;;7.63;1.67;;;19.60;62.00;;;;;;4984618;28;20049;-84
2022/07/07 09:45:03;;;;;;;1.95;1.10;;;19.60;61.80;;;;;;4984113;28;20042;-87
2022/07/07 09:47:29;;;;;;;3.70;1.52;;;19.80;61.90;;;;;;4962940;28;20042;-84
2022/07/07 09:50:05;;;;;;;5.10;1.20;;;20.10;60.30;;;;;;4966457;28;20057;-85
2022/07/07 09:52:32;;;;;;;3.38;1.10;;;20.50;58.60;;;;;;4983173;28;20023;-84
2022/07/07 09:54:59;;;;;;;2.90;1.17;;;20.60;58.40;;;;;;4976590;28;20011;-82
2022/07/07 09:57:25;;;;;;;3.30;1.10;;;20.70;57.50;;;;;;4945660;29;20024;-83
2022/07/07 09:59:51;;;;;;;1.23;0.80;;;20.60;57.90;;;;;;4961365;28;20019;-84
2022/07/07 10:02:23;;;;;;;3.15;1.20;;;20.70;58.20;;;;;;4948983;29;20074;-84
2022/07/07 10:04:53;;;;;;;2.13;1.05;;;20.70;58.00;;;;;;4969407;29;20023;-84
2022/07/07 10:07:24;;;;;;;1.15;0.80;;;20.80;57.80;;;;;;4972783;28;20092;-83
2022/07/07 10:09:56;;;;;;;4.63;1.30;;;20.70;58.20;;;;;;4982811;28;20169;-84
2022/07/07 10:12:26;;;;;;;3.78;1.27;;;20.50;58.40;;;;;;4981407;28;20027;-85
2022/07/07 10:14:58;;;;;;;4.97;1.25;;;20.20;59.20;;;;;;4963797;28;20035;-85
2022/07/07 10:17:26;;;;;;;2.33;1.35;;;20.00;59.50;;;;;;4963172;28;20042;-83
2022/07/07 10:19:52;;;;;;;2.45;1.15;;;19.90;60.90;;;;;;4980376;28;20046;-84
2022/07/07 10:22:21;;;;;;;6.85;1.27;;;19.70;61.70;;;;;;4964403;28;20411;-82
2022/07/07 10:24:47;;;;;;;3.63;1.83;;;19.60;63.40;;;;;;4976214;28;20027;-82
2022/07/07 10:27:33;;;;;;;2.45;1.50;;;19.50;64.30;;;;;;4962880;29;20027;-85
2022/07/07 10:34:15;;;;;;;2.05;1.52;;;19.60;65.00;;;;;;4940845;29;20054;-84
2022/07/07 10:37:24;;;;;;;1.48;1.23;;;19.90;64.40;;;;;;4960100;29;20042;-85
2022/07/07 10:40:36;;;;;;;3.60;1.58;;;20.30;64.90;;;;;;4944359;29;20131;-86
2022/07/07 10:43:42;;;;;;;2.42;1.58;;;21.00;64.70;;;;;;4957862;28;20042;-87
2022/07/07 10:46:19;;;;;;;3.25;1.40;;;21.60;62.40;;;;;;4941751;29;20042;-86
2022/07/07 10:49:08;;;;;;;5.55;1.48;;;21.80;59.40;;;;;;4958771;28;20504;-86
2022/07/07 10:51:58;;;;;;;2.50;1.30;;;22.00;57.20;;;;;;4946957;28;20427;-87
2022/07/07 10:54:57;;;;;;;4.60;1.50;;;22.30;57.10;;;;;;4959548;28;20031;-86
2022/07/07 10:57:42;;;;;;;6.07;1.65;;;22.50;56.00;;;;;;4993034;28;20036;-85
2022/07/07 11:00:31;;;;;;;4.75;1.50;;;22.80;53.80;;;;;;4985287;28;20022;-86
2022/07/07 11:03:06;;;;;;;3.17;1.55;;;22.70;53.70;;;;;;4984579;28;20053;-87
2022/07/07 11:05:36;;;;;;;18.98;3.60;;;22.50;53.30;;;;;;4998083;28;20038;-86
2022/07/07 11:08:06;;;;;;;4.03;1.45;;;22.50;54.10;;;;;;4972345;28;20118;-85
2022/07/07 11:10:55;;;;;;;6.70;1.80;;;22.50;54.60;;;;;;4962897;28;20086;-86
2022/07/07 11:13:51;;;;;;;6.50;1.42;;;22.60;54.40;;;;;;4979770;28;20042;-85
2022/07/07 11:17:14;;;;;;;2.30;1.50;;;22.60;53.80;;;;;;4965998;28;20050;-90
2022/07/07 11:20:03;;;;;;;5.75;1.40;;;22.40;54.30;;;;;;4979143;28;20046;-86
2022/07/07 11:22:54;;;;;;;12.25;1.55;;;22.50;54.50;;;;;;4970795;28;20114;-85
2022/07/07 11:25:22;;;;;;;6.15;1.58;;;22.40;54.10;;;;;;4958153;28;20027;-86
2022/07/07 11:27:49;;;;;;;7.32;1.52;;;22.50;53.60;;;;;;4942586;29;20047;-85
2022/07/07 11:30:16;;;;;;;5.97;1.63;;;22.50;53.80;;;;;;4943132;29;20020;-85
2022/07/07 11:32:43;;;;;;;4.90;1.85;;;22.40;54.00;;;;;;4943088;29;20091;-84
2022/07/07 11:35:13;;;;;;;10.30;2.13;;;22.40;54.40;;;;;;4959943;28;20036;-85
2022/07/07 11:37:41;;;;;;;3.95;1.55;;;22.30;54.00;;;;;;4943422;28;20374;-85
2022/07/07 11:40:13;;;;;;;7.05;1.33;;;22.10;55.00;;;;;;4982504;28;20058;-85
2022/07/07 11:42:40;;;;;;;3.90;1.50;;;22.00;55.40;;;;;;4982168;28;20034;-84
2022/07/07 11:45:27;;;;;;;3.25;1.23;;;21.90;55.50;;;;;;4979494;28;20031;-85
2022/07/07 11:47:56;;;;;;;6.68;1.88;;;21.60;57.00;;;;;;4985733;28;20022;-84
2022/07/07 11:50:24;;;;;;;2.47;1.50;;;21.40;57.20;;;;;;4983241;28;20027;-85
2022/07/07 11:53:00;;;;;;;1.88;1.35;;;21.40;57.60;;;;;;4986722;28;20030;-85
2022/07/07 11:55:27;;;;;;;3.13;1.88;;;21.50;57.60;;;;;;4958194;28;20364;-83
2022/07/07 11:57:56;;;;;;;15.82;2.28;;;21.50;57.90;;;;;;4982417;28;20033;-85
2022/07/07 12:00:52;;;;;;;4.60;1.58;;;21.60;57.60;;;;;;4985424;28;20026;-86
2022/07/07 12:03:19;;;;;;;6.22;1.23;;;21.60;58.10;;;;;;4980304;28;20049;-85
2022/07/07 12:05:47;;;;;;;6.53;2.00;;;21.50;57.80;;;;;;4976832;28;20045;-84
2022/07/07 12:08:13;;;;;;;2.75;1.15;;;21.30;57.30;;;;;;4977400;28;20027;-84
2022/07/07 12:10:53;;;;;;;5.97;1.50;;;20.90;58.60;;;;;;4992826;28;20022;-83
2022/07/07 12:13:19;;;;;;;8.88;2.28;;;20.80;59.70;;;;;;4969916;28;20031;-83
2022/07/07 12:15:53;;;;;;;10.70;1.85;;;20.70;60.40;;;;;;4980004;28;20035;-85
2022/07/07 12:18:24;;;;;;;17.10;2.08;;;20.60;60.70;;;;;;4980459;28;20050;-82
2022/07/07 12:21:05;;;;;;;5.10;1.77;;;20.60;61.00;;;;;;4990276;28;20034;-84
2022/07/07 12:23:36;;;;;;;5.60;1.58;;;20.70;60.70;;;;;;4988880;28;20057;-84
2022/07/07 12:26:10;;;;;;;18.23;3.83;;;20.80;61.10;;;;;;4956132;29;20039;-83
2022/07/07 12:28:37;;;;;;;11.85;1.95;;;20.90;60.40;;;;;;4948441;29;20043;-83
2022/07/07 12:31:04;;;;;;;16.35;2.58;;;21.00;60.40;;;;;;4979738;28;20026;-83
2022/07/07 12:33:39;;;;;;;12.57;3.20;;;21.00;59.50;;;;;;4981542;28;20074;-84
2022/07/07 12:36:22;;;;;;;32.60;4.82;;;20.90;60.60;;;;;;4961697;29;20027;-83
2022/07/07 12:38:59;;;;;;;38.63;4.20;;;20.70;62.00;;;;;;4961470;28;20078;-83
2022/07/07 12:41:26;;;;;;;11.40;2.40;;;20.80;62.70;;;;;;4977853;28;20678;-85
2022/07/07 12:43:54;;;;;;;15.38;2.40;;;20.90;62.00;;;;;;4963901;28;20030;-83
2022/07/07 12:46:20;;;;;;;8.45;1.73;;;21.10;62.00;;;;;;4981273;28;20030;-83
2022/07/07 12:48:51;;;;;;;7.15;1.90;;;21.40;61.40;;;;;;4981587;28;20026;-83
2022/07/07 12:51:25;;;;;;;54.80;7.70;;;21.80;59.30;;;;;;4981370;28;20469;-84
2022/07/07 12:53:51;;;;;;;24.02;4.32;;;22.20;58.90;;;;;;4979831;28;20019;-84
2022/07/07 12:56:17;;;;;;;18.83;2.80;;;22.40;57.20;;;;;;4958906;28;20027;-80
2022/07/07 12:58:52;;;;;;;9.80;2.08;;;22.60;57.80;;;;;;4987742;28;20035;-79
2022/07/07 13:01:21;;;;;;;2.45;1.25;;;22.80;57.40;;;;;;4982404;28;20054;-85
2022/07/07 13:03:51;;;;;;;4.82;1.95;;;22.90;55.80;;;;;;4965889;28;20050;-84
2022/07/07 13:06:17;;;;;;;3.53;1.40;;;23.10;55.40;;;;;;4964498;28;20027;-83
2022/07/07 13:08:44;;;;;;;2.53;1.67;;;23.30;55.30;;;;;;4965829;28;20019;-84
2022/07/07 13:11:10;;;;;;;7.75;1.80;;;23.40;54.60;;;;;;4967212;28;20122;-82
2022/07/07 13:13:45;;;;;;;4.20;1.60;;;23.20;54.80;;;;;;4982225;28;20022;-84
2022/07/07 13:16:11;;;;;;;3.10;2.13;;;23.00;54.80;;;;;;4962491;28;20099;-84
2022/07/07 13:18:38;;;;;;;5.70;1.80;;;22.60;55.70;;;;;;4963931;28;20378;-83
2022/07/07 13:21:06;;;;;;;3.78;1.50;;;22.10;56.90;;;;;;4948384;28;20022;-84
2022/07/07 13:23:33;;;;;;;11.88;2.50;;;21.80;58.40;;;;;;4981550;28;20027;-84
2022/07/07 13:26:02;;;;;;;3.58;1.60;;;21.40;58.90;;;;;;4964336;29;20027;-84